Time;durP1;ratioP1;P1;durP2;ratioP2;P2;SDS_P1;SDS_P2;PMS_P1;PMS_P2;Temp;Humidity;BMP_temperature;BMP_pressure;BME280_temperature;BME280_humidity;BME280_pressure;Samples;Min_cycle;Max_cycle;Signal;HPM_P1;HPM_P2
2024/04/05 00:00:52;;;;;;;37.22;35.13;;;;;;;;;;4921833;29;20063;-96
2024/04/05 00:03:19;;;;;;;25.50;24.00;;;;;;;;;;4938077;29;20086;-96
2024/04/05 00:08:48;;;;;;;23.27;21.80;;;;;;;;;;4918848;29;20039;-95
2024/04/05 00:11:15;;;;;;;30.58;28.83;;;;;;;;;;4917337;29;20036;-96
2024/04/05 00:13:41;;;;;;;51.55;48.58;;;;;;;;;;4917638;29;20064;-95
2024/04/05 00:16:08;;;;;;;60.42;57.10;;;;;;;;;;4918452;29;20028;-96
2024/04/05 00:18:34;;;;;;;51.72;48.78;;;;;;;;;;4917312;29;20029;-93
2024/04/05 00:21:04;;;;;;;71.10;67.05;;;;;;;;;;4916736;29;20493;-94
2024/04/05 00:23:34;;;;;;;97.32;91.88;;;;;;;;;;4917004;29;20042;-95
2024/04/05 00:26:05;;;;;;;50.80;47.92;;;;;;;;;;4917067;29;20091;-94
2024/04/05 00:28:31;;;;;;;114.07;107.93;;;;;;;;;;4916524;29;20052;-94
2024/04/05 00:30:57;;;;;;;78.43;74.03;;;;;;;;;;4925910;29;20039;-93
2024/04/05 00:33:24;;;;;;;116.22;109.93;;;;;;;;;;4919920;29;20043;-93
2024/04/05 00:35:54;;;;;;;44.83;42.17;;;;;;;;;;4919631;29;20505;-95
2024/04/05 00:38:20;;;;;;;57.13;53.75;;;;;;;;;;4919846;29;20019;-93
2024/04/05 00:40:46;;;;;;;64.82;61.10;;;;;;;;;;4919861;29;20020;-92
2024/04/05 00:43:13;;;;;;;44.00;41.35;;;;;;;;;;4906213;29;20035;-93
2024/04/05 00:45:40;;;;;;;113.35;107.20;;;;;;;;;;4920074;29;20043;-94
2024/04/05 00:48:06;;;;;;;56.38;53.17;;;;;;;;;;4916767;29;20056;-94
2024/04/05 00:50:33;;;;;;;45.30;42.38;;;;;;;;;;4928132;29;20118;-93
2024/04/05 00:53:00;;;;;;;47.42;44.50;;;;;;;;;;4904649;29;20474;-94
2024/04/05 00:55:27;;;;;;;30.95;29.10;;;;;;;;;;4916467;29;20092;-94
2024/04/05 00:57:54;;;;;;;59.30;56.00;;;;;;;;;;4929555;29;20027;-92
2024/04/05 01:00:23;;;;;;;25.17;23.65;;;;;;;;;;4926162;29;20039;-93
2024/04/05 01:02:49;;;;;;;60.40;56.90;;;;;;;;;;4917806;29;20031;-94
2024/04/05 01:05:15;;;;;;;65.78;62.10;;;;;;;;;;4916542;29;20474;-93
2024/04/05 01:07:45;;;;;;;60.63;57.22;;;;;;;;;;4919042;29;20473;-92
2024/04/05 01:10:11;;;;;;;31.73;29.88;;;;;;;;;;4920091;29;20413;-95
2024/04/05 01:12:37;;;;;;;35.88;33.67;;;;;;;;;;4919604;29;20056;-94
2024/04/05 01:15:03;;;;;;;22.00;20.55;;;;;;;;;;4919687;29;20027;-93
2024/04/05 01:17:29;;;;;;;19.95;18.75;;;;;;;;;;4919666;29;20024;-94
2024/04/05 01:19:57;;;;;;;48.38;45.45;;;;;;;;;;4919219;29;20027;-93
2024/04/05 01:22:30;;;;;;;48.03;45.10;;;;;;;;;;4919370;29;20123;-94
2024/04/05 01:24:56;;;;;;;32.05;30.05;;;;;;;;;;4920488;29;20036;-94
2024/04/05 01:27:23;;;;;;;56.58;53.38;;;;;;;;;;4922988;29;20024;-94
2024/04/05 01:29:49;;;;;;;46.33;43.47;;;;;;;;;;4922876;29;20393;-94
2024/04/05 01:32:15;;;;;;;57.47;54.17;;;;;;;;;;4922668;29;20039;-93
2024/04/05 01:34:41;;;;;;;76.80;72.57;;;;;;;;;;4922456;29;20019;-94
2024/04/05 01:37:08;;;;;;;33.40;31.23;;;;;;;;;;4904759;29;20047;-94
2024/04/05 01:39:35;;;;;;;79.72;75.20;;;;;;;;;;4919355;29;20074;-93
2024/04/05 01:42:01;;;;;;;28.48;26.67;;;;;;;;;;4919456;29;20039;-94
2024/04/05 01:44:27;;;;;;;26.98;25.27;;;;;;;;;;4919351;29;20039;-94
2024/04/05 01:46:53;;;;;;;18.33;17.00;;;;;;;;;;4919136;29;20060;-94
2024/04/05 01:49:20;;;;;;;60.85;57.30;;;;;;;;;;4919151;29;20028;-94
2024/04/05 01:51:46;;;;;;;31.60;29.58;;;;;;;;;;4919228;29;20127;-93
2024/04/05 01:54:31;;;;;;;41.15;38.53;;;;;;;;;;4918962;29;20397;-94
2024/04/05 01:56:58;;;;;;;47.33;44.45;;;;;;;;;;4919340;29;20040;-94
2024/04/05 01:59:24;;;;;;;16.83;15.60;;;;;;;;;;4919046;29;20111;-93
2024/04/05 02:01:50;;;;;;;71.28;67.05;;;;;;;;;;4919638;29;20130;-94
2024/04/05 02:04:17;;;;;;;30.55;28.50;;;;;;;;;;4919520;29;20020;-94
2024/04/05 02:06:43;;;;;;;51.63;48.40;;;;;;;;;;4919081;29;20032;-93
2024/04/05 02:09:09;;;;;;;66.00;62.17;;;;;;;;;;4919078;29;20032;-93
2024/04/05 02:11:35;;;;;;;32.35;30.30;;;;;;;;;;4918839;29;20450;-95
2024/04/05 02:14:04;;;;;;;55.42;52.10;;;;;;;;;;4918597;29;20379;-94
2024/04/05 02:16:32;;;;;;;96.38;90.82;;;;;;;;;;4918734;29;20036;-93
2024/04/05 02:18:58;;;;;;;87.70;82.85;;;;;;;;;;4918843;29;20028;-93
2024/04/05 02:21:24;;;;;;;102.95;97.18;;;;;;;;;;4918599;29;20031;-94
2024/04/05 02:23:51;;;;;;;96.85;91.38;;;;;;;;;;4925452;29;20021;-93
2024/04/05 02:26:17;;;;;;;48.25;45.20;;;;;;;;;;4937672;29;20016;-94
2024/04/05 02:28:43;;;;;;;52.63;49.72;;;;;;;;;;4917739;29;20038;-93
2024/04/05 02:31:09;;;;;;;163.85;155.38;;;;;;;;;;4921734;29;20048;-94
2024/04/05 02:33:36;;;;;;;151.07;143.20;;;;;;;;;;4918606;29;20048;-93
2024/04/05 02:36:03;;;;;;;177.45;168.27;;;;;;;;;;4918593;29;20055;-94
2024/04/05 02:38:29;;;;;;;151.63;143.63;;;;;;;;;;4918492;29;20115;-92
2024/04/05 02:40:55;;;;;;;113.50;107.18;;;;;;;;;;4922100;29;20052;-94
2024/04/05 02:43:22;;;;;;;137.73;130.40;;;;;;;;;;4931890;29;20058;-92
2024/04/05 02:45:50;;;;;;;128.18;121.22;;;;;;;;;;4922586;29;20038;-93
2024/04/05 02:48:17;;;;;;;137.85;130.27;;;;;;;;;;4921506;29;20031;-93
2024/04/05 02:50:43;;;;;;;112.53;106.32;;;;;;;;;;4921479;29;20529;-93
2024/04/05 02:53:09;;;;;;;174.05;164.70;;;;;;;;;;4921326;29;20070;-93
2024/04/05 02:55:35;;;;;;;170.75;161.73;;;;;;;;;;4921752;29;20024;-92
2024/04/05 02:58:20;;;;;;;195.23;184.85;;;;;;;;;;4921813;29;20035;-93
2024/04/05 03:00:57;;;;;;;189.05;179.23;;;;;;;;;;4902198;29;20553;-93
2024/04/05 03:03:24;;;;;;;98.05;92.65;;;;;;;;;;4918915;29;20384;-93
2024/04/05 03:05:50;;;;;;;205.63;194.55;;;;;;;;;;4921039;29;20035;-92
2024/04/05 03:08:16;;;;;;;164.93;156.15;;;;;;;;;;4920940;29;20119;-96
2024/04/05 03:10:42;;;;;;;165.98;157.00;;;;;;;;;;4920858;29;20028;-93
2024/04/05 03:13:08;;;;;;;155.85;147.45;;;;;;;;;;4921382;29;20028;-93
2024/04/05 03:15:35;;;;;;;149.60;141.45;;;;;;;;;;4921093;29;20027;-95
2024/04/05 03:18:02;;;;;;;134.60;127.13;;;;;;;;;;4920921;29;20032;-95
2024/04/05 03:20:29;;;;;;;155.48;147.15;;;;;;;;;;4920547;29;20023;-96
2024/04/05 03:22:55;;;;;;;169.75;160.65;;;;;;;;;;4920559;29;20035;-96
2024/04/05 03:25:21;;;;;;;193.90;183.63;;;;;;;;;;4920889;29;20112;-96
2024/04/05 03:27:47;;;;;;;168.38;159.43;;;;;;;;;;4920720;29;20055;-93
2024/04/05 03:30:14;;;;;;;139.38;131.80;;;;;;;;;;4920681;29;20474;-95
2024/04/05 03:32:40;;;;;;;136.00;128.55;;;;;;;;;;4919044;29;20139;-92
2024/04/05 03:35:06;;;;;;;148.50;140.38;;;;;;;;;;4925894;29;20031;-94
2024/04/05 03:37:33;;;;;;;163.75;155.07;;;;;;;;;;4921701;29;20038;-93
2024/04/05 03:40:00;;;;;;;168.52;159.55;;;;;;;;;;4920752;29;20421;-96
2024/04/05 03:42:26;;;;;;;128.80;121.75;;;;;;;;;;4920587;29;20120;-93
2024/04/05 03:44:52;;;;;;;123.03;116.40;;;;;;;;;;4920463;29;20032;-92
2024/04/05 03:47:18;;;;;;;110.18;104.05;;;;;;;;;;4919874;29;20374;-96
2024/04/05 03:49:44;;;;;;;93.68;88.53;;;;;;;;;;4920755;29;20044;-94
2024/04/05 03:52:10;;;;;;;68.25;64.45;;;;;;;;;;4920791;29;20043;-94
2024/04/05 03:54:37;;;;;;;36.80;34.55;;;;;;;;;;4920265;29;20111;-93
2024/04/05 03:57:03;;;;;;;34.15;32.05;;;;;;;;;;4920663;29;20122;-95
2024/04/05 03:59:29;;;;;;;38.88;36.42;;;;;;;;;;4920285;29;20106;-96
2024/04/05 04:01:56;;;;;;;16.23;14.65;;;;;;;;;;4920464;29;20030;-96
2024/04/05 04:04:23;;;;;;;29.00;27.15;;;;;;;;;;4919978;29;20473;-95
2024/04/05 04:06:52;;;;;;;47.13;44.25;;;;;;;;;;4920184;29;20036;-96
2024/04/05 04:09:18;;;;;;;18.10;16.80;;;;;;;;;;4920373;29;20023;-95
2024/04/05 04:11:44;;;;;;;66.30;62.65;;;;;;;;;;4920374;29;20036;-96
2024/04/05 04:14:13;;;;;;;81.88;77.32;;;;;;;;;;4919943;29;20031;-94
2024/04/05 04:16:40;;;;;;;80.00;75.50;;;;;;;;;;4920173;29;20399;-94
2024/04/05 04:19:07;;;;;;;32.85;30.75;;;;;;;;;;4920003;29;20024;-94
2024/04/05 04:21:33;;;;;;;87.22;82.53;;;;;;;;;;4912068;29;20024;-94
2024/04/05 04:24:00;;;;;;;110.60;104.60;;;;;;;;;;4936526;29;20040;-92
2024/04/05 04:26:27;;;;;;;80.97;76.35;;;;;;;;;;4929085;29;20103;-94
2024/04/05 04:28:53;;;;;;;128.30;121.47;;;;;;;;;;4920336;29;20030;-94
2024/04/05 04:31:23;;;;;;;90.65;85.65;;;;;;;;;;4919925;29;20087;-94
2024/04/05 04:33:49;;;;;;;150.70;142.52;;;;;;;;;;4920542;29;20027;-94
2024/04/05 04:36:18;;;;;;;112.45;106.35;;;;;;;;;;4937867;29;20354;-95
2024/04/05 04:38:45;;;;;;;114.50;108.25;;;;;;;;;;4920252;29;20090;-94
2024/04/05 04:41:14;;;;;;;130.57;123.53;;;;;;;;;;4919897;29;20040;-92
2024/04/05 04:43:41;;;;;;;109.60;103.60;;;;;;;;;;4920730;29;20035;-92
2024/04/05 04:46:07;;;;;;;81.70;77.15;;;;;;;;;;4920125;29;20061;-94
2024/04/05 04:48:34;;;;;;;101.80;96.13;;;;;;;;;;4908183;29;20024;-94
2024/04/05 04:51:01;;;;;;;76.82;72.65;;;;;;;;;;4916901;29;20048;-94
2024/04/05 04:53:27;;;;;;;104.18;98.63;;;;;;;;;;4916801;29;20036;-93
2024/04/05 04:55:53;;;;;;;124.05;117.25;;;;;;;;;;4916578;29;20029;-92
2024/04/05 04:58:22;;;;;;;130.40;123.20;;;;;;;;;;4916728;29;20111;-91
2024/04/05 05:00:51;;;;;;;104.28;98.20;;;;;;;;;;4918695;29;20039;-94
2024/04/05 05:03:18;;;;;;;67.25;63.08;;;;;;;;;;4920035;29;20533;-93
2024/04/05 05:05:45;;;;;;;110.72;104.22;;;;;;;;;;4919943;29;20084;-93
2024/04/05 05:08:11;;;;;;;104.70;98.38;;;;;;;;;;4920180;29;20393;-95
2024/04/05 05:10:38;;;;;;;123.25;116.07;;;;;;;;;;4919817;29;20124;-95
2024/04/05 05:13:05;;;;;;;137.27;129.40;;;;;;;;;;4921432;29;20029;-94
2024/04/05 05:15:31;;;;;;;142.68;134.57;;;;;;;;;;4926148;29;20032;-96
2024/04/05 05:17:57;;;;;;;116.32;109.20;;;;;;;;;;4927503;29;20027;-96
2024/04/05 05:20:51;;;;;;;134.20;126.00;;;;;;;;;;4925692;29;20024;-95
2024/04/05 05:23:39;;;;;;;100.20;93.82;;;;;;;;;;4922438;29;20063;-95
2024/04/05 05:26:06;;;;;;;120.57;113.50;;;;;;;;;;4913534;29;20032;-94
2024/04/05 05:28:33;;;;;;;81.45;76.68;;;;;;;;;;4937939;29;20034;-94
2024/04/05 05:31:01;;;;;;;79.22;74.45;;;;;;;;;;4933167;29;20044;-95
2024/04/05 05:33:29;;;;;;;53.58;50.38;;;;;;;;;;4946943;29;20031;-95
2024/04/05 05:35:56;;;;;;;89.38;84.10;;;;;;;;;;4941447;29;20038;-93
2024/04/05 05:38:24;;;;;;;71.38;67.25;;;;;;;;;;4923528;29;20032;-93
2024/04/05 05:40:50;;;;;;;57.58;54.25;;;;;;;;;;4906985;29;20131;-94
2024/04/05 05:43:17;;;;;;;52.75;49.72;;;;;;;;;;4919451;29;20042;-94
2024/04/05 05:45:43;;;;;;;48.13;45.22;;;;;;;;;;4919258;29;20059;-94
2024/04/05 05:48:09;;;;;;;52.50;49.25;;;;;;;;;;4918934;29;20076;-93
2024/04/05 05:50:35;;;;;;;44.58;41.97;;;;;;;;;;4919178;29;20024;-94
2024/04/05 05:53:03;;;;;;;41.05;38.65;;;;;;;;;;4920357;29;20088;-94
2024/04/05 05:55:37;;;;;;;38.92;36.50;;;;;;;;;;4919182;29;20043;-93
2024/04/05 05:58:07;;;;;;;41.58;39.08;;;;;;;;;;4905484;29;20128;-94
2024/04/05 06:00:35;;;;;;;35.28;32.97;;;;;;;;;;4923171;29;20112;-94
2024/04/05 06:06:07;;;;;;;30.25;28.52;;;;;;;;;;5100634;23;20049;-93
2024/04/05 06:08:44;;;;;;;;;;;;;;;;;;;;;
2024/04/05 06:11:12;;;;;;;21.35;20.08;;;;;;;;;;4978884;28;20045;-93
2024/04/05 06:13:44;;;;;;;11.95;11.05;;;;;;;;;;4977085;28;20428;-94
2024/04/05 06:16:10;;;;;;;11.25;10.30;;;;;;;;;;4977942;28;20031;-94
2024/04/05 06:18:36;;;;;;;9.35;8.65;;;;;;;;;;4976737;28;20074;-94
2024/04/05 06:21:08;;;;;;;7.38;6.78;;;;;;;;;;4978101;28;20041;-94
2024/04/05 06:24:00;;;;;;;8.25;7.57;;;;;;;;;;5000402;28;20030;-95
2024/04/05 06:29:32;;;;;;;6.65;6.15;;;;;;;;;;4954297;29;20082;-93
2024/04/05 06:41:44;;;;;;;6.45;5.85;;;;;;;;;;4951742;29;20098;-94
2024/04/05 06:44:49;;;;;;;5.30;4.90;;;;;;;;;;4910487;29;20054;-94
2024/04/05 06:47:28;;;;;;;5.22;4.72;;;;;;;;;;4883347;29;20040;-94
2024/04/05 06:49:57;;;;;;;6.00;5.50;;;;;;;;;;4951207;29;20039;-94
2024/04/05 06:52:31;;;;;;;5.90;5.18;;;;;;;;;;4944221;29;20035;-93
2024/04/05 06:55:05;;;;;;;5.25;4.75;;;;;;;;;;4916880;29;20456;-92
2024/04/05 06:57:36;;;;;;;4.88;4.47;;;;;;;;;;4902688;29;20035;-93
2024/04/05 07:00:05;;;;;;;7.97;6.20;;;;;;;;;;4939037;28;20038;-93
2024/04/05 07:02:42;;;;;;;5.28;4.30;;;;;;;;;;4979644;28;20031;-94
2024/04/05 07:05:31;;;;;;;5.15;4.25;;;;;;;;;;4983033;28;20031;-93
2024/04/05 07:08:29;;;;;;;6.85;4.95;;;;;;;;;;4959932;29;20194;-94
2024/04/05 07:10:58;;;;;;;5.78;4.65;;;;;;;;;;4922097;29;20039;-93
2024/04/05 07:19:32;;;;;;;5.20;4.45;;;;;;;;;;4977454;28;20136;-91
2024/04/05 07:22:03;;;;;;;4.88;4.53;;;;;;;;;;4960673;28;20027;-93
2024/04/05 07:28:00;;;;;;;5.70;4.65;;;;;;;;;;4888247;29;20060;-93
2024/04/05 07:30:45;;;;;;;;;;;;;;;;;;;;;
2024/04/05 07:33:14;;;;;;;5.93;4.15;;;;;;;;;;4922517;29;20130;-94
2024/04/05 07:38:58;;;;;;;5.60;5.10;;;;;;;;;;4922812;29;20129;-92
2024/04/05 07:41:24;;;;;;;5.53;4.85;;;;;;;;;;4901735;29;20040;-92
2024/04/05 07:43:56;;;;;;;5.07;4.55;;;;;;;;;;4901003;29;20032;-91
2024/04/05 07:46:23;;;;;;;5.00;4.57;;;;;;;;;;4900982;29;20092;-91
2024/04/05 07:48:49;;;;;;;6.00;5.07;;;;;;;;;;4930405;28;20023;-91
2024/04/05 07:51:50;;;;;;;7.03;4.35;;;;;;;;;;4977409;28;20069;-94
2024/04/05 07:54:20;;;;;;;5.30;4.53;;;;;;;;;;4959336;28;20034;-93
2024/04/05 07:59:47;;;;;;;4.95;4.43;;;;;;;;;;4924567;29;20127;-93
2024/04/05 08:03:22;;;;;;;;;;;;;;;;;;;;;
2024/04/05 08:05:38;;;;;;;5.55;5.03;;;;;;;;;;4978030;23;20620;-90
2024/04/05 08:08:05;;;;;;;7.03;5.55;;;;;;;;;;4939377;29;20465;-92
2024/04/05 08:10:31;;;;;;;4.63;4.20;;;;;;;;;;4940515;29;20027;-93
2024/04/05 08:12:58;;;;;;;5.82;4.88;;;;;;;;;;4940333;29;20134;-92
2024/04/05 08:15:40;;;;;;;;;;;;;;;;;;;;;
2024/04/05 08:21:09;;;;;;;5.57;5.03;;;;;;;;;;4969478;23;20173;-90
2024/04/05 08:23:36;;;;;;;7.57;5.95;;;;;;;;;;4938879;29;20066;-92
2024/04/05 08:26:02;;;;;;;5.35;4.80;;;;;;;;;;4940180;29;20023;-89
2024/04/05 08:28:29;;;;;;;6.20;5.60;;;;;;;;;;4956032;28;20083;-89
2024/04/05 08:46:30;;;;;;;6.68;6.07;;;;;;;;;;5109027;23;20075;-91
2024/04/05 08:48:57;;;;;;;6.63;6.03;;;;;;;;;;4942475;29;20452;-91
2024/04/05 08:51:32;;;;;;;8.10;7.50;;;;;;;;;;4942238;29;20038;-91
2024/04/05 08:54:02;;;;;;;7.20;5.88;;;;;;;;;;4961771;28;20121;-93
2024/04/05 09:02:42;;;;;;;13.65;12.75;;;;;;;;;;4938075;29;20046;-96
2024/04/05 09:05:38;;;;;;;16.15;14.95;;;;;;;;;;4937262;29;20118;-94
2024/04/05 09:08:05;;;;;;;14.60;13.60;;;;;;;;;;4948637;28;20037;-93
2024/04/05 09:10:38;;;;;;;17.27;16.00;;;;;;;;;;4961778;28;20090;-94
2024/04/05 09:16:29;;;;;;;17.27;16.17;;;;;;;;;;4912255;29;20028;-95
2024/04/05 09:25:27;;;;;;;21.85;20.02;;;;;;;;;;4923331;29;20196;-91
